Time;durP1;ratioP1;P1;durP2;ratioP2;P2;SDS_P1;SDS_P2;PMS_P1;PMS_P2;Temp;Humidity;BMP_temperature;BMP_pressure;BME280_temperature;BME280_humidity;BME280_pressure;Samples;Min_cycle;Max_cycle;Signal;HPM_P1;HPM_P2
2022/01/13 00:00:16;;;;;;;22.77;11.27;;;3.00;99.90;;;;;;5066482;28;20261;-65
2022/01/13 00:02:42;;;;;;;21.10;11.13;;;2.90;99.90;;;;;;5066904;28;20189;-65
2022/01/13 00:05:08;;;;;;;21.00;11.23;;;3.00;99.90;;;;;;5067349;28;20690;-67
2022/01/13 00:07:36;;;;;;;21.57;10.90;;;2.90;99.90;;;;;;5066537;28;20214;-66
2022/01/13 00:10:03;;;;;;;22.00;12.03;;;3.00;99.90;;;;;;5065026;28;20645;-67
2022/01/13 00:12:34;;;;;;;24.20;11.63;;;3.00;99.90;;;;;;5066470;28;20544;-67
2022/01/13 00:15:21;;;;;;;22.77;12.27;;;3.00;99.90;;;;;;5067224;28;20590;-66
2022/01/13 00:25:14;;;;;;;20.63;10.73;;;3.10;99.90;;;;;;5066448;28;20236;-68
2022/01/13 00:27:44;;;;;;;21.37;9.93;;;3.10;99.90;;;;;;5066386;28;20188;-65
2022/01/13 00:30:16;;;;;;;22.00;10.03;;;3.20;99.90;;;;;;5065988;28;20231;-65
2022/01/13 00:32:42;;;;;;;18.83;9.23;;;3.10;99.90;;;;;;5065895;28;20213;-65
2022/01/13 00:35:09;;;;;;;18.13;9.03;;;3.10;99.90;;;;;;5066667;28;20188;-67
2022/01/13 00:37:36;;;;;;;20.47;9.50;;;3.10;99.90;;;;;;5065334;28;20185;-67
2022/01/13 00:40:02;;;;;;;21.20;9.87;;;3.00;99.90;;;;;;5064649;28;20598;-66
2022/01/13 00:42:28;;;;;;;17.60;10.07;;;3.00;99.90;;;;;;5066471;28;20185;-65
2022/01/13 00:44:54;;;;;;;20.73;9.00;;;2.90;99.90;;;;;;5066002;28;20216;-68
2022/01/13 00:47:20;;;;;;;18.63;9.57;;;2.90;99.90;;;;;;5066788;28;20191;-70
2022/01/13 00:49:46;;;;;;;19.20;9.90;;;2.80;99.90;;;;;;5065971;28;20186;-66
2022/01/13 00:52:12;;;;;;;18.20;9.63;;;2.80;99.90;;;;;;5066540;28;20224;-67
2022/01/13 00:54:39;;;;;;;17.53;9.67;;;2.60;99.90;;;;;;5066494;28;20229;-68
2022/01/13 00:57:04;;;;;;;18.57;9.73;;;2.50;99.90;;;;;;5066317;28;20182;-67
2022/01/13 00:59:30;;;;;;;19.50;10.00;;;2.50;99.90;;;;;;5065440;28;20262;-65
2022/01/13 01:01:56;;;;;;;19.20;10.10;;;2.30;99.90;;;;;;5066096;28;20639;-66
2022/01/13 01:04:23;;;;;;;19.27;9.37;;;2.30;99.90;;;;;;5066501;28;20243;-65
2022/01/13 01:06:49;;;;;;;18.67;10.40;;;2.20;99.90;;;;;;5066208;28;20174;-64
2022/01/13 01:09:21;;;;;;;18.47;9.23;;;2.30;99.90;;;;;;5066029;28;20761;-66
2022/01/13 01:11:49;;;;;;;19.27;10.07;;;2.40;99.90;;;;;;5065827;28;20185;-66
2022/01/13 01:14:16;;;;;;;18.43;9.03;;;2.40;99.90;;;;;;5066068;28;20255;-65
2022/01/13 01:16:42;;;;;;;18.10;9.70;;;2.60;99.90;;;;;;5066516;28;20182;-66
2022/01/13 01:19:10;;;;;;;18.73;10.43;;;2.70;99.90;;;;;;5065927;28;20186;-66
2022/01/13 01:26:57;;;;;;;19.30;9.73;;;2.60;99.90;;;;;;5066184;28;20185;-68
2022/01/13 01:29:37;;;;;;;19.97;9.80;;;2.60;99.90;;;;;;5065930;28;20216;-67
2022/01/13 01:32:08;;;;;;;16.50;8.43;;;2.50;99.90;;;;;;5063963;28;20572;-68
2022/01/13 01:34:51;;;;;;;17.87;9.00;;;2.60;99.90;;;;;;5064502;28;20699;-67
2022/01/13 01:37:19;;;;;;;17.40;9.20;;;2.60;99.90;;;;;;5064234;28;20339;-68
2022/01/13 01:39:48;;;;;;;16.37;9.80;;;2.60;99.90;;;;;;5065261;28;20576;-66
2022/01/13 01:42:15;;;;;;;16.10;9.10;;;2.50;99.90;;;;;;5065631;28;20455;-66
2022/01/13 01:44:44;;;;;;;17.67;9.17;;;2.40;99.90;;;;;;5066342;28;20575;-67
2022/01/13 01:47:15;;;;;;;19.27;10.10;;;2.40;99.90;;;;;;5065596;28;20267;-66
2022/01/13 01:49:45;;;;;;;18.90;9.67;;;2.30;99.90;;;;;;5065479;28;20185;-67
2022/01/13 01:52:12;;;;;;;18.73;8.67;;;2.30;99.90;;;;;;5065918;28;20178;-68
2022/01/13 01:54:38;;;;;;;17.80;9.73;;;2.40;99.90;;;;;;5065658;28;20202;-66
2022/01/13 01:57:05;;;;;;;16.67;9.70;;;2.40;99.90;;;;;;5068130;28;20181;-66
2022/01/13 01:59:34;;;;;;;18.70;9.83;;;2.50;99.90;;;;;;5069123;28;20185;-66
2022/01/13 02:02:00;;;;;;;20.67;9.30;;;2.50;99.90;;;;;;5069223;28;20660;-66
2022/01/13 02:04:26;;;;;;;20.80;10.80;;;2.60;99.90;;;;;;5068104;28;20262;-65
2022/01/13 02:06:54;;;;;;;18.33;9.60;;;2.60;99.90;;;;;;5069070;28;20181;-67
2022/01/13 02:09:21;;;;;;;18.40;10.40;;;2.50;99.90;;;;;;5068614;28;20649;-68
2022/01/13 02:11:53;;;;;;;20.63;10.37;;;2.40;99.90;;;;;;5068942;28;20504;-66
2022/01/13 02:17:06;;;;;;;18.70;10.13;;;2.20;99.90;;;;;;5068511;28;20188;-66
2022/01/13 02:19:35;;;;;;;19.27;10.00;;;2.20;99.90;;;;;;5068316;28;20173;-66
2022/01/13 02:22:01;;;;;;;19.83;9.70;;;2.20;99.90;;;;;;5068686;28;20173;-65
2022/01/13 02:24:27;;;;;;;23.20;10.80;;;2.10;99.90;;;;;;5068811;28;20672;-65
2022/01/13 02:26:53;;;;;;;21.87;10.70;;;2.10;99.90;;;;;;5068597;28;20720;-69
2022/01/13 02:29:19;;;;;;;23.30;11.00;;;2.10;99.90;;;;;;5067061;28;20280;-66
2022/01/13 02:31:45;;;;;;;24.27;11.37;;;2.10;99.90;;;;;;5068521;28;20193;-66
2022/01/13 02:34:10;;;;;;;19.40;9.77;;;2.00;99.90;;;;;;5066678;28;20228;-66
2022/01/13 02:36:37;;;;;;;20.43;10.83;;;1.90;99.90;;;;;;5067440;28;20182;-67
2022/01/13 02:39:04;;;;;;;21.87;10.70;;;1.90;99.90;;;;;;5067483;28;20230;-65
2022/01/13 02:41:30;;;;;;;23.07;11.17;;;1.90;99.90;;;;;;5067823;28;20621;-67
2022/01/13 02:44:00;;;;;;;21.73;11.17;;;1.80;99.90;;;;;;5068243;28;20209;-65
2022/01/13 02:49:10;;;;;;;25.40;11.87;;;1.70;99.90;;;;;;5068642;28;20193;-67
2022/01/13 02:51:37;;;;;;;21.77;11.07;;;1.70;99.90;;;;;;5067707;28;20197;-66
2022/01/13 02:54:04;;;;;;;25.93;12.07;;;1.70;99.90;;;;;;5068842;28;20213;-65
2022/01/13 02:56:31;;;;;;;22.30;11.20;;;1.60;99.90;;;;;;5068439;28;20468;-65
2022/01/13 02:58:56;;;;;;;23.80;11.87;;;1.50;99.90;;;;;;5068393;28;20186;-65
2022/01/13 03:01:23;;;;;;;25.77;10.97;;;1.60;99.90;;;;;;5068141;28;20723;-67
2022/01/13 03:03:48;;;;;;;22.50;11.50;;;1.60;99.90;;;;;;5068204;28;20228;-66
2022/01/13 03:06:16;;;;;;;22.53;11.97;;;1.60;99.90;;;;;;5068809;28;20625;-65
2022/01/13 03:08:44;;;;;;;25.37;11.73;;;1.70;99.90;;;;;;5067032;28;20185;-67
2022/01/13 03:11:10;;;;;;;23.80;11.63;;;1.70;99.90;;;;;;5065821;28;20621;-66
2022/01/13 03:13:36;;;;;;;23.27;11.43;;;1.70;99.90;;;;;;5067577;28;20209;-68
2022/01/13 03:16:10;;;;;;;24.67;10.50;;;1.70;99.90;;;;;;5067567;28;20182;-66
2022/01/13 03:18:36;;;;;;;27.17;11.83;;;1.70;99.90;;;;;;5067936;28;20182;-65
2022/01/13 03:21:03;;;;;;;23.83;11.97;;;1.70;99.90;;;;;;5067468;28;20182;-66
2022/01/13 03:23:28;;;;;;;24.07;12.03;;;1.60;99.90;;;;;;5067887;28;20209;-68
2022/01/13 03:25:54;;;;;;;25.87;12.47;;;1.50;99.90;;;;;;5067901;28;20208;-65
2022/01/13 03:28:29;;;;;;;27.07;13.70;;;1.50;99.90;;;;;;5067300;28;20189;-67
2022/01/13 03:30:57;;;;;;;30.00;13.33;;;1.50;99.90;;;;;;5066871;28;20197;-65
2022/01/13 03:33:23;;;;;;;29.17;12.27;;;1.50;99.90;;;;;;5065693;28;20212;-66
2022/01/13 03:35:49;;;;;;;26.30;12.47;;;1.60;99.90;;;;;;5067152;28;20260;-67
2022/01/13 03:38:15;;;;;;;30.53;13.23;;;1.60;99.90;;;;;;5067569;28;20545;-67
2022/01/13 03:40:41;;;;;;;32.07;14.03;;;1.60;99.90;;;;;;5066183;28;20181;-68
2022/01/13 03:43:07;;;;;;;30.73;13.43;;;1.60;99.90;;;;;;5067221;28;20254;-64
2022/01/13 03:45:33;;;;;;;26.93;13.73;;;1.60;99.90;;;;;;5067367;28;20571;-66
2022/01/13 03:48:00;;;;;;;30.47;13.70;;;1.50;99.90;;;;;;5066901;28;20185;-69
2022/01/13 03:50:25;;;;;;;28.90;13.80;;;1.50;99.90;;;;;;5066581;28;20234;-66
2022/01/13 03:52:57;;;;;;;31.10;14.30;;;1.60;99.90;;;;;;5065502;28;20229;-65
2022/01/13 03:55:35;;;;;;;34.83;14.27;;;1.70;99.90;;;;;;5066841;28;20212;-66
2022/01/13 03:58:19;;;;;;;29.70;14.80;;;1.80;99.90;;;;;;5064786;28;20173;-66
2022/01/13 04:01:37;;;;;;;30.37;14.07;;;1.90;99.90;;;;;;5064844;28;20190;-66
2022/01/13 04:04:03;;;;;;;34.97;14.00;;;2.00;99.90;;;;;;5041898;28;20217;-66
2022/01/13 04:06:42;;;;;;;33.87;14.70;;;2.10;99.90;;;;;;5065765;28;20185;-65
2022/01/13 04:09:24;;;;;;;34.63;13.80;;;2.20;99.90;;;;;;5065565;28;20272;-65
2022/01/13 04:11:51;;;;;;;31.40;15.20;;;2.30;99.90;;;;;;5063962;28;20201;-68
2022/01/13 04:14:26;;;;;;;29.87;13.77;;;2.30;99.90;;;;;;5065932;28;20214;-65
2022/01/13 04:16:51;;;;;;;32.33;14.60;;;2.30;99.90;;;;;;5058528;28;20563;-67
2022/01/13 04:19:17;;;;;;;30.43;14.97;;;2.30;99.90;;;;;;5064072;28;20190;-65
2022/01/13 04:21:43;;;;;;;35.60;15.37;;;2.40;99.90;;;;;;5064214;28;20216;-64
2022/01/13 04:24:12;;;;;;;34.80;15.07;;;2.30;99.90;;;;;;5063458;28;20241;-65
2022/01/13 04:26:43;;;;;;;31.33;15.47;;;2.30;99.90;;;;;;5065591;28;20245;-65
2022/01/13 04:31:39;;;;;;;32.43;14.73;;;2.30;99.90;;;;;;5061635;28;20189;-69
2022/01/13 04:34:05;;;;;;;31.43;15.00;;;2.30;99.90;;;;;;5063054;28;20307;-65
2022/01/13 04:36:31;;;;;;;33.60;15.30;;;2.30;99.90;;;;;;5063173;28;20264;-64
2022/01/13 04:38:57;;;;;;;36.27;15.43;;;2.40;99.90;;;;;;5063201;28;20258;-64
2022/01/13 04:41:36;;;;;;;32.47;14.80;;;2.40;99.90;;;;;;5062840;28;20665;-67
2022/01/13 04:44:07;;;;;;;31.10;16.33;;;2.40;99.90;;;;;;5062327;28;20259;-65
2022/01/13 04:46:33;;;;;;;30.87;15.87;;;2.40;99.90;;;;;;5058501;28;20206;-65
2022/01/13 04:49:00;;;;;;;34.20;15.07;;;2.40;99.90;;;;;;5061997;28;20558;-66
2022/01/13 04:51:26;;;;;;;32.80;15.80;;;2.30;99.90;;;;;;5063347;28;20181;-67
2022/01/13 04:53:52;;;;;;;34.30;16.07;;;2.50;99.90;;;;;;5064270;28;20232;-66
2022/01/13 04:56:28;;;;;;;30.47;15.23;;;2.50;99.90;;;;;;5064369;28;20185;-68
2022/01/13 04:58:54;;;;;;;38.50;17.63;;;2.50;99.90;;;;;;5063221;28;20208;-66
2022/01/13 05:01:20;;;;;;;30.43;16.83;;;2.50;99.90;;;;;;5064660;28;20224;-69
2022/01/13 05:03:45;;;;;;;33.90;16.37;;;2.40;99.90;;;;;;5064056;28;20209;-66
2022/01/13 05:06:13;;;;;;;36.63;17.07;;;2.50;99.90;;;;;;5062996;28;20228;-67
2022/01/13 05:08:39;;;;;;;34.57;15.90;;;2.60;99.90;;;;;;5063739;28;20177;-68
2022/01/13 05:11:05;;;;;;;34.07;16.37;;;2.60;99.90;;;;;;5062040;28;20665;-69
2022/01/13 05:13:31;;;;;;;35.97;15.33;;;2.60;99.90;;;;;;5063806;28;20205;-67
2022/01/13 05:15:57;;;;;;;37.10;16.60;;;2.50;99.90;;;;;;5064239;28;20714;-67
2022/01/13 05:18:30;;;;;;;34.93;16.07;;;2.50;99.90;;;;;;5064044;28;20268;-66
2022/01/13 05:21:01;;;;;;;39.27;16.97;;;2.50;99.90;;;;;;5061940;28;20633;-66
2022/01/13 05:23:27;;;;;;;36.70;17.60;;;2.50;99.90;;;;;;5063719;28;20206;-66
2022/01/13 05:25:52;;;;;;;36.13;18.17;;;2.50;99.90;;;;;;5063581;28;20190;-67
2022/01/13 05:28:18;;;;;;;38.50;17.23;;;2.60;99.90;;;;;;5064337;28;20213;-67
2022/01/13 05:30:44;;;;;;;40.97;18.50;;;2.60;99.90;;;;;;5062067;28;20177;-68
2022/01/13 05:33:10;;;;;;;40.03;18.53;;;2.60;99.90;;;;;;5067658;28;20271;-67
2022/01/13 05:35:36;;;;;;;35.30;16.30;;;2.60;99.90;;;;;;5068058;28;20567;-65
2022/01/13 05:38:04;;;;;;;40.80;17.57;;;2.60;99.90;;;;;;5067347;28;20213;-66
2022/01/13 05:40:29;;;;;;;36.33;16.77;;;2.60;99.90;;;;;;5067229;28;20732;-67
2022/01/13 05:42:55;;;;;;;37.73;18.57;;;2.70;99.90;;;;;;5067467;28;20288;-65
2022/01/13 05:45:24;;;;;;;34.70;15.77;;;2.70;99.90;;;;;;5067517;28;20390;-65
2022/01/13 05:47:50;;;;;;;35.67;16.70;;;2.60;99.90;;;;;;5067624;28;20872;-68
2022/01/13 05:50:18;;;;;;;34.13;16.83;;;2.60;99.90;;;;;;5066621;28;20182;-68
2022/01/13 05:52:43;;;;;;;39.53;17.00;;;2.60;99.90;;;;;;5067220;28;20665;-67
2022/01/13 05:55:10;;;;;;;38.93;17.93;;;2.70;99.90;;;;;;5067108;28;20213;-65
2022/01/13 05:57:36;;;;;;;35.80;17.37;;;2.70;99.90;;;;;;5067309;28;20655;-68
2022/01/13 06:00:07;;;;;;;38.13;17.90;;;2.70;99.90;;;;;;5066046;28;20188;-67
2022/01/13 06:02:33;;;;;;;36.23;17.13;;;2.70;99.90;;;;;;5067238;28;20189;-67
2022/01/13 06:04:58;;;;;;;37.37;17.47;;;2.70;99.90;;;;;;5066910;28;20580;-64
2022/01/13 06:07:24;;;;;;;39.17;17.27;;;2.70;99.90;;;;;;5067226;28;20289;-68
2022/01/13 06:09:49;;;;;;;37.53;18.53;;;2.70;99.90;;;;;;5066590;28;20189;-67
2022/01/13 06:12:16;;;;;;;45.87;17.87;;;2.70;99.90;;;;;;5067169;28;20188;-65
2022/01/13 06:14:43;;;;;;;40.57;17.77;;;2.70;99.90;;;;;;5066840;28;20198;-67
2022/01/13 06:17:08;;;;;;;39.87;18.20;;;2.70;99.90;;;;;;5067356;28;20186;-66
2022/01/13 06:19:34;;;;;;;38.67;16.83;;;2.80;99.90;;;;;;5064524;28;20720;-65
2022/01/13 06:21:59;;;;;;;37.27;18.20;;;2.70;99.90;;;;;;5067098;28;20194;-65
2022/01/13 06:24:25;;;;;;;40.57;18.00;;;2.70;99.90;;;;;;5066351;28;20241;-67
2022/01/13 06:26:50;;;;;;;42.90;16.67;;;2.60;99.90;;;;;;5067067;28;20269;-67
2022/01/13 06:29:16;;;;;;;37.67;17.30;;;2.70;99.90;;;;;;5065648;28;20322;-67
2022/01/13 06:31:42;;;;;;;49.67;18.27;;;2.70;99.90;;;;;;5066637;28;20239;-67
2022/01/13 06:34:07;;;;;;;42.13;17.67;;;2.70;99.90;;;;;;5066112;28;20723;-65
2022/01/13 06:36:33;;;;;;;40.53;18.07;;;2.80;99.90;;;;;;5066986;28;20180;-66
2022/01/13 06:38:59;;;;;;;40.20;18.27;;;2.80;99.90;;;;;;5066038;28;20636;-67
2022/01/13 06:41:25;;;;;;;38.63;17.37;;;2.90;99.90;;;;;;5065403;28;20653;-67
2022/01/13 06:43:50;;;;;;;35.77;17.90;;;2.90;99.90;;;;;;5066080;28;20235;-66
2022/01/13 06:46:16;;;;;;;47.47;19.87;;;2.80;99.90;;;;;;5066594;28;20197;-67
2022/01/13 06:48:45;;;;;;;41.03;17.77;;;2.80;99.90;;;;;;5066003;28;20182;-66
2022/01/13 06:51:11;;;;;;;37.47;18.13;;;2.90;99.90;;;;;;5065381;28;20189;-68
2022/01/13 06:53:36;;;;;;;42.77;17.53;;;2.90;99.90;;;;;;5065952;28;20213;-69
2022/01/13 06:56:02;;;;;;;44.97;19.03;;;2.80;99.90;;;;;;5066193;28;20193;-67
2022/01/13 06:58:28;;;;;;;41.00;18.53;;;2.90;99.90;;;;;;5066307;28;20707;-67
2022/01/13 07:00:53;;;;;;;43.13;18.60;;;2.90;99.90;;;;;;5065542;28;20198;-66
2022/01/13 07:03:22;;;;;;;43.80;18.70;;;2.90;99.90;;;;;;5064690;28;20635;-68
2022/01/13 07:05:48;;;;;;;39.70;17.43;;;2.90;99.90;;;;;;5066217;28;20236;-65
2022/01/13 07:08:14;;;;;;;36.07;16.67;;;2.90;99.90;;;;;;5065878;28;20217;-66
2022/01/13 07:10:40;;;;;;;40.07;18.17;;;3.00;99.90;;;;;;5064924;28;20641;-68
2022/01/13 07:13:06;;;;;;;39.33;18.30;;;3.00;99.90;;;;;;5065845;28;20214;-67
2022/01/13 07:15:32;;;;;;;41.63;17.97;;;2.90;99.90;;;;;;5065495;28;20183;-65
2022/01/13 07:17:58;;;;;;;44.77;19.40;;;3.00;99.90;;;;;;5065838;28;20722;-67
2022/01/13 07:20:26;;;;;;;40.50;17.83;;;3.00;99.90;;;;;;5064990;28;20281;-66
2022/01/13 07:22:51;;;;;;;36.67;18.00;;;3.00;99.90;;;;;;5065225;28;20264;-69
2022/01/13 07:25:17;;;;;;;39.87;17.57;;;3.00;99.90;;;;;;5065406;28;20268;-67
2022/01/13 07:27:43;;;;;;;38.13;17.30;;;3.00;99.90;;;;;;5065429;28;20189;-66
2022/01/13 07:30:10;;;;;;;40.83;18.33;;;3.10;99.90;;;;;;5064427;28;20237;-69
2022/01/13 07:32:40;;;;;;;36.40;17.13;;;3.10;99.90;;;;;;5065264;28;20213;-67
2022/01/13 07:35:07;;;;;;;38.10;16.63;;;3.10;99.90;;;;;;5064809;28;20284;-67
2022/01/13 07:37:33;;;;;;;39.43;17.93;;;3.10;99.90;;;;;;5065148;28;20582;-67
2022/01/13 07:39:58;;;;;;;42.40;17.93;;;3.10;99.90;;;;;;5064348;28;20195;-68
2022/01/13 07:42:25;;;;;;;37.37;16.50;;;3.20;99.90;;;;;;5065383;28;20189;-66
2022/01/13 07:44:52;;;;;;;36.43;17.70;;;3.20;99.90;;;;;;5064537;28;20216;-65
2022/01/13 07:47:18;;;;;;;38.23;16.90;;;3.20;99.90;;;;;;5065599;28;20649;-66
2022/01/13 07:49:44;;;;;;;41.33;17.07;;;3.20;99.90;;;;;;5063832;28;20206;-67
2022/01/13 07:52:09;;;;;;;35.63;15.87;;;3.20;99.90;;;;;;5065143;28;20227;-66
2022/01/13 07:54:35;;;;;;;40.97;17.47;;;3.20;99.90;;;;;;5063609;28;20205;-66
2022/01/13 07:57:01;;;;;;;35.17;15.40;;;3.20;99.90;;;;;;5065490;28;20177;-68
2022/01/13 07:59:28;;;;;;;40.53;17.27;;;3.20;99.90;;;;;;5064007;28;20645;-67
2022/01/13 08:02:00;;;;;;;34.27;16.30;;;3.20;99.90;;;;;;5064872;28;20177;-67
2022/01/13 08:04:26;;;;;;;38.43;16.80;;;3.30;99.90;;;;;;5064412;28;20603;-65
2022/01/13 08:06:52;;;;;;;35.60;15.63;;;3.30;99.90;;;;;;5061866;28;20835;-67
2022/01/13 08:09:17;;;;;;;40.13;16.93;;;3.30;99.90;;;;;;5063245;28;20268;-66
2022/01/13 08:11:44;;;;;;;34.17;16.23;;;3.30;99.90;;;;;;5064472;28;20307;-68
2022/01/13 08:14:10;;;;;;;39.00;16.27;;;3.40;99.90;;;;;;5063898;28;20220;-64
2022/01/13 08:16:37;;;;;;;37.60;16.70;;;3.50;99.90;;;;;;5064417;28;20181;-66
2022/01/13 08:21:48;;;;;;;35.33;15.53;;;3.50;99.90;;;;;;5064151;28;20208;-68
2022/01/13 08:24:14;;;;;;;35.73;17.30;;;3.50;99.90;;;;;;5063767;28;20558;-69
2022/01/13 08:26:40;;;;;;;35.10;16.47;;;3.40;99.90;;;;;;5064871;28;20195;-67
2022/01/13 08:29:05;;;;;;;32.43;14.57;;;3.40;99.90;;;;;;5062410;28;20238;-66
2022/01/13 08:31:32;;;;;;;33.93;15.10;;;3.50;99.90;;;;;;5059437;28;20292;-68
2022/01/13 08:33:57;;;;;;;34.30;16.77;;;3.40;99.90;;;;;;5061931;28;20481;-65
2022/01/13 08:36:23;;;;;;;33.73;16.10;;;3.30;99.90;;;;;;5062275;28;20185;-67
2022/01/13 08:38:49;;;;;;;38.63;15.13;;;3.40;99.90;;;;;;5061682;28;20204;-67
2022/01/13 08:41:15;;;;;;;30.80;13.70;;;3.40;99.90;;;;;;5061209;28;20180;-67
2022/01/13 08:43:41;;;;;;;37.90;16.20;;;3.30;99.90;;;;;;5061194;28;20212;-67
2022/01/13 08:46:07;;;;;;;32.50;14.87;;;3.30;99.90;;;;;;5060846;28;20561;-67
2022/01/13 08:48:34;;;;;;;39.43;14.37;;;3.30;99.90;;;;;;5059921;28;20189;-65
2022/01/13 08:51:00;;;;;;;37.40;15.57;;;3.40;99.90;;;;;;5061138;28;20182;-67
2022/01/13 08:53:26;;;;;;;33.87;14.60;;;3.40;99.90;;;;;;5062093;28;20633;-67
2022/01/13 08:55:54;;;;;;;35.40;14.17;;;3.40;99.90;;;;;;5062117;28;20643;-67
2022/01/13 08:58:22;;;;;;;37.20;14.83;;;3.40;99.90;;;;;;5061928;28;20317;-68
2022/01/13 09:00:49;;;;;;;33.77;14.80;;;3.50;99.90;;;;;;5054857;28;20199;-67
2022/01/13 09:03:15;;;;;;;34.47;15.13;;;3.50;99.90;;;;;;5062827;28;20266;-67
2022/01/13 09:05:42;;;;;;;33.97;15.33;;;3.60;99.90;;;;;;5063375;28;20189;-64
2022/01/13 09:08:10;;;;;;;37.90;17.60;;;3.60;99.90;;;;;;5066824;28;20189;-67
2022/01/13 09:10:39;;;;;;;36.13;15.03;;;3.60;99.90;;;;;;5066063;28;20194;-66
2022/01/13 09:13:11;;;;;;;36.37;15.00;;;3.60;99.90;;;;;;5065836;28;20593;-66
2022/01/13 09:15:41;;;;;;;30.97;14.70;;;3.60;99.90;;;;;;5066402;28;20182;-66
2022/01/13 09:18:11;;;;;;;30.90;13.67;;;3.60;99.90;;;;;;5066227;28;20181;-67
2022/01/13 09:20:39;;;;;;;36.40;14.93;;;3.70;99.90;;;;;;5066004;28;20659;-65
2022/01/13 09:23:05;;;;;;;35.83;15.20;;;3.70;99.90;;;;;;5064910;28;20209;-67
2022/01/13 09:25:32;;;;;;;35.33;16.00;;;3.70;99.90;;;;;;5066442;28;20889;-66
2022/01/13 09:27:58;;;;;;;31.17;14.47;;;3.70;99.90;;;;;;5067004;28;20190;-67
2022/01/13 09:30:24;;;;;;;33.63;14.40;;;3.70;99.90;;;;;;5065638;28;21211;-67
2022/01/13 09:32:49;;;;;;;32.10;13.67;;;3.70;99.90;;;;;;5066202;28;20725;-65
2022/01/13 09:35:15;;;;;;;31.20;14.53;;;3.70;99.90;;;;;;5066183;28;20227;-66
2022/01/13 09:37:41;;;;;;;31.90;13.90;;;3.80;99.90;;;;;;5066010;28;20728;-68
2022/01/13 09:40:09;;;;;;;30.87;13.80;;;3.80;99.90;;;;;;5065263;28;20193;-65
2022/01/13 09:42:38;;;;;;;31.70;13.63;;;3.80;99.90;;;;;;5065790;28;20208;-67
2022/01/13 09:45:06;;;;;;;30.37;13.13;;;3.80;99.90;;;;;;5065535;28;20263;-69
2022/01/13 09:47:33;;;;;;;37.03;15.00;;;3.90;99.90;;;;;;5066336;28;20251;-67
2022/01/13 09:50:02;;;;;;;37.73;15.03;;;3.90;99.90;;;;;;5064331;28;20268;-65
2022/01/13 09:52:28;;;;;;;33.23;15.47;;;3.90;99.90;;;;;;5066182;28;20193;-67
2022/01/13 09:54:55;;;;;;;32.23;13.90;;;3.90;99.90;;;;;;5063926;28;20647;-67
2022/01/13 09:57:21;;;;;;;32.23;13.87;;;4.00;99.90;;;;;;5064665;28;20430;-65
2022/01/13 09:59:47;;;;;;;33.27;14.10;;;4.10;99.90;;;;;;5065362;28;20260;-65
2022/01/13 10:02:12;;;;;;;30.60;14.13;;;4.20;99.90;;;;;;5066796;28;20181;-68
2022/01/13 10:04:51;;;;;;;33.80;14.20;;;4.20;99.90;;;;;;5065724;28;20205;-64
2022/01/13 10:07:38;;;;;;;29.13;13.10;;;4.20;99.90;;;;;;5065561;28;20205;-67
2022/01/13 10:10:08;;;;;;;29.37;14.60;;;4.20;99.90;;;;;;5065402;28;20557;-66
2022/01/13 10:12:39;;;;;;;28.50;13.10;;;4.30;99.90;;;;;;5066720;28;20225;-65
2022/01/13 10:18:02;;;;;;;29.47;13.10;;;4.30;99.90;;;;;;5065008;28;20204;-66
2022/01/13 10:20:28;;;;;;;27.77;12.83;;;4.40;99.90;;;;;;5065461;28;20185;-67
2022/01/13 10:22:54;;;;;;;29.40;14.23;;;4.40;99.90;;;;;;5065853;28;20200;-65
2022/01/13 10:25:32;;;;;;;27.73;13.27;;;4.40;99.90;;;;;;5063190;28;20602;-67
2022/01/13 10:28:14;;;;;;;28.40;13.00;;;4.50;99.90;;;;;;5065367;28;20188;-67
2022/01/13 10:30:40;;;;;;;24.37;12.03;;;4.60;99.90;;;;;;5064275;28;20184;-66
2022/01/13 10:33:26;;;;;;;26.80;13.10;;;4.60;99.90;;;;;;5063726;28;20585;-67
2022/01/13 10:35:54;;;;;;;26.27;13.67;;;4.60;99.90;;;;;;5065424;28;20374;-65
2022/01/13 10:38:21;;;;;;;23.73;11.90;;;4.60;99.90;;;;;;5065084;28;20181;-66
2022/01/13 10:40:48;;;;;;;24.40;12.50;;;4.70;99.90;;;;;;5063169;28;20645;-67
2022/01/13 10:43:20;;;;;;;26.27;11.87;;;4.70;99.90;;;;;;5065625;28;20206;-65
2022/01/13 10:45:52;;;;;;;24.13;12.50;;;4.70;99.90;;;;;;5064254;28;20215;-65
2022/01/13 10:48:19;;;;;;;25.87;12.00;;;4.60;99.90;;;;;;5061501;28;20189;-68
2022/01/13 10:51:07;;;;;;;25.73;12.23;;;4.60;99.90;;;;;;5063551;28;20560;-67
2022/01/13 10:53:37;;;;;;;23.50;11.93;;;4.60;99.90;;;;;;5063482;28;20221;-67
2022/01/13 10:56:07;;;;;;;25.77;11.50;;;4.60;99.90;;;;;;5063591;28;20272;-67
2022/01/13 10:58:38;;;;;;;26.63;12.53;;;4.80;99.90;;;;;;5064918;28;20256;-66
2022/01/13 11:01:05;;;;;;;28.33;12.60;;;4.80;99.90;;;;;;5065003;28;20200;-66
2022/01/13 11:03:34;;;;;;;20.93;11.60;;;5.00;99.90;;;;;;5065786;28;20208;-66
2022/01/13 11:06:05;;;;;;;22.27;12.30;;;5.10;99.90;;;;;;5064807;28;20738;-67
2022/01/13 11:08:42;;;;;;;21.30;11.37;;;5.20;99.90;;;;;;5065749;28;20310;-66
2022/01/13 11:11:17;;;;;;;21.53;11.07;;;5.20;99.90;;;;;;5064966;28;20440;-66
2022/01/13 11:13:54;;;;;;;22.30;12.23;;;5.10;99.90;;;;;;5065505;28;20216;-66
2022/01/13 11:16:21;;;;;;;20.50;10.87;;;5.20;99.90;;;;;;5065425;28;20645;-67
2022/01/13 11:18:47;;;;;;;21.60;10.37;;;5.40;99.90;;;;;;5065308;28;20201;-65
2022/01/13 11:21:13;;;;;;;22.27;10.73;;;5.50;99.90;;;;;;5065235;28;20192;-64
2022/01/13 11:23:41;;;;;;;23.33;10.80;;;5.60;99.90;;;;;;5064724;28;20205;-66
2022/01/13 11:26:08;;;;;;;21.20;10.73;;;5.70;99.90;;;;;;5065301;28;20212;-66
2022/01/13 11:28:37;;;;;;;17.73;10.57;;;5.60;99.90;;;;;;5062482;28;20193;-64
2022/01/13 11:31:03;;;;;;;19.73;11.10;;;5.70;99.90;;;;;;5059180;28;20697;-65
2022/01/13 11:33:29;;;;;;;17.53;9.87;;;5.80;99.90;;;;;;5061236;28;20221;-69
2022/01/13 11:35:57;;;;;;;21.37;10.10;;;5.80;99.90;;;;;;5062662;28;20185;-68
2022/01/13 11:38:25;;;;;;;18.13;10.00;;;5.70;99.90;;;;;;5061848;28;20213;-67
2022/01/13 11:40:53;;;;;;;20.97;11.23;;;5.70;99.90;;;;;;5061826;28;20189;-68
2022/01/13 11:43:32;;;;;;;22.80;10.87;;;5.60;99.90;;;;;;5061913;28;20220;-66
2022/01/13 11:46:15;;;;;;;20.93;11.13;;;5.60;99.90;;;;;;5058591;28;20185;-68
2022/01/13 11:48:57;;;;;;;19.67;10.30;;;5.60;99.90;;;;;;5059951;28;20951;-65
2022/01/13 11:51:23;;;;;;;16.63;9.27;;;5.60;99.90;;;;;;5055928;28;20532;-67
2022/01/13 11:53:55;;;;;;;16.93;9.07;;;5.50;99.90;;;;;;5060393;28;20225;-65
2022/01/13 11:56:22;;;;;;;18.03;9.80;;;5.60;99.90;;;;;;5060828;28;20192;-67
2022/01/13 11:58:48;;;;;;;17.73;9.53;;;5.50;99.90;;;;;;5060618;28;20181;-66
2022/01/13 12:01:32;;;;;;;16.57;9.23;;;5.50;99.90;;;;;;5060773;28;20209;-68
2022/01/13 12:04:03;;;;;;;19.00;9.93;;;5.60;99.90;;;;;;5060112;28;20280;-67
2022/01/13 12:06:34;;;;;;;20.13;10.37;;;5.70;99.90;;;;;;5060855;28;20694;-68
2022/01/13 12:09:00;;;;;;;18.43;9.67;;;5.70;99.90;;;;;;5058126;28;20291;-67
2022/01/13 12:11:50;;;;;;;19.63;10.63;;;5.70;99.90;;;;;;5059629;28;20206;-67
2022/01/13 12:14:26;;;;;;;19.17;10.10;;;5.60;99.90;;;;;;5060577;28;20752;-67
2022/01/13 12:17:26;;;;;;;18.17;9.83;;;5.50;99.90;;;;;;5061182;28;20487;-67
2022/01/13 12:20:01;;;;;;;17.33;9.27;;;5.50;99.90;;;;;;5060084;28;20539;-65
2022/01/13 12:22:37;;;;;;;19.13;10.27;;;5.50;99.90;;;;;;5060414;28;20216;-66
2022/01/13 12:25:05;;;;;;;16.43;9.53;;;5.50;99.90;;;;;;5055022;28;20213;-66
2022/01/13 12:27:39;;;;;;;17.17;9.57;;;5.50;99.90;;;;;;5060606;28;20284;-66
2022/01/13 12:30:05;;;;;;;18.23;9.40;;;5.40;99.90;;;;;;5059961;28;20664;-66
2022/01/13 12:32:42;;;;;;;18.17;10.23;;;5.50;99.90;;;;;;5061562;28;20296;-67
2022/01/13 12:35:27;;;;;;;16.77;9.73;;;5.50;99.90;;;;;;5061681;28;20189;-69
2022/01/13 12:38:17;;;;;;;20.57;9.87;;;5.50;99.90;;;;;;5060539;28;20173;-66
2022/01/13 12:41:00;;;;;;;19.80;9.67;;;5.40;99.90;;;;;;5060330;28;20278;-67
2022/01/13 12:43:48;;;;;;;18.13;9.27;;;5.40;99.90;;;;;;5060076;28;20216;-67
2022/01/13 12:46:24;;;;;;;16.67;10.10;;;5.40;99.90;;;;;;5061287;28;20204;-64
2022/01/13 12:48:52;;;;;;;18.27;9.00;;;5.50;99.90;;;;;;5060929;28;20572;-67
2022/01/13 12:51:21;;;;;;;15.57;9.10;;;5.40;99.90;;;;;;5061488;28;20200;-67
2022/01/13 12:53:48;;;;;;;17.07;9.67;;;5.40;99.90;;;;;;5061279;28;20692;-64
2022/01/13 12:56:16;;;;;;;18.50;10.27;;;5.30;99.90;;;;;;5062683;28;20182;-66
2022/01/13 12:58:46;;;;;;;18.03;10.17;;;5.20;99.90;;;;;;5062285;28;20173;-66
2022/01/13 13:01:19;;;;;;;18.87;9.77;;;5.20;99.90;;;;;;5063544;28;20184;-65
2022/01/13 13:04:17;;;;;;;16.87;9.60;;;5.10;99.90;;;;;;5064052;28;20303;-66
2022/01/13 13:06:46;;;;;;;17.87;9.23;;;5.20;99.90;;;;;;5034376;28;20216;-66
2022/01/13 13:09:14;;;;;;;16.40;9.00;;;5.10;99.90;;;;;;5061025;28;20247;-69
2022/01/13 13:11:43;;;;;;;15.27;9.13;;;5.10;99.90;;;;;;5061024;28;20193;-66